sensor_id;sensor_type;location;lat;lon;timestamp;P1;durP1;ratioP1;P2;durP2;ratioP2
79036;SDS011;68434;59.896;30.474;2023-03-14T00:00:03;6.80;;;3.17;;
79036;SDS011;68434;59.896;30.474;2023-03-14T00:02:34;4.45;;;2.92;;
79036;SDS011;68434;59.896;30.474;2023-03-14T00:05:02;5.70;;;3.25;;
79036;SDS011;68434;59.896;30.474;2023-03-14T00:07:34;4.85;;;3.33;;
79036;SDS011;68434;59.896;30.474;2023-03-14T00:10:02;6.13;;;3.20;;
79036;SDS011;68434;59.896;30.474;2023-03-14T00:12:31;7.75;;;3.95;;
79036;SDS011;68434;59.896;30.474;2023-03-14T00:14:59;5.47;;;2.28;;
79036;SDS011;68434;59.896;30.474;2023-03-14T00:17:29;5.75;;;3.42;;
79036;SDS011;68434;59.896;30.474;2023-03-14T00:19:56;5.78;;;2.92;;
79036;SDS011;68434;59.896;30.474;2023-03-14T00:22:29;6.68;;;3.00;;
79036;SDS011;68434;59.896;30.474;2023-03-14T00:24:58;6.30;;;3.40;;
79036;SDS011;68434;59.896;30.474;2023-03-14T00:29:53;4.65;;;2.90;;
79036;SDS011;68434;59.896;30.474;2023-03-14T00:32:20;4.97;;;2.75;;
79036;SDS011;68434;59.896;30.474;2023-03-14T00:34:48;5.85;;;3.33;;
79036;SDS011;68434;59.896;30.474;2023-03-14T00:37:15;3.85;;;2.13;;
79036;SDS011;68434;59.896;30.474;2023-03-14T00:39:43;7.18;;;3.90;;
79036;SDS011;68434;59.896;30.474;2023-03-14T00:42:11;4.97;;;2.85;;
79036;SDS011;68434;59.896;30.474;2023-03-14T00:44:39;4.70;;;3.10;;
79036;SDS011;68434;59.896;30.474;2023-03-14T00:47:06;5.97;;;3.72;;
79036;SDS011;68434;59.896;30.474;2023-03-14T00:49:34;8.15;;;3.90;;
79036;SDS011;68434;59.896;30.474;2023-03-14T00:52:01;3.97;;;2.83;;
79036;SDS011;68434;59.896;30.474;2023-03-14T00:54:29;5.72;;;3.40;;
79036;SDS011;68434;59.896;30.474;2023-03-14T00:56:56;3.28;;;1.98;;
79036;SDS011;68434;59.896;30.474;2023-03-14T00:59:25;2.72;;;2.33;;
79036;SDS011;68434;59.896;30.474;2023-03-14T01:01:53;5.30;;;2.40;;
79036;SDS011;68434;59.896;30.474;2023-03-14T01:04:20;7.13;;;3.97;;
79036;SDS011;68434;59.896;30.474;2023-03-14T01:06:47;4.75;;;2.95;;
79036;SDS011;68434;59.896;30.474;2023-03-14T01:09:15;5.97;;;3.05;;
79036;SDS011;68434;59.896;30.474;2023-03-14T01:11:43;5.43;;;3.25;;
79036;SDS011;68434;59.896;30.474;2023-03-14T01:14:12;4.05;;;2.70;;
79036;SDS011;68434;59.896;30.474;2023-03-14T01:16:41;5.75;;;3.60;;
79036;SDS011;68434;59.896;30.474;2023-03-14T01:19:09;6.32;;;4.03;;
79036;SDS011;68434;59.896;30.474;2023-03-14T01:21:36;6.07;;;3.17;;
79036;SDS011;68434;59.896;30.474;2023-03-14T01:24:04;9.05;;;2.35;;
79036;SDS011;68434;59.896;30.474;2023-03-14T01:26:33;5.13;;;3.35;;
79036;SDS011;68434;59.896;30.474;2023-03-14T01:29:03;4.80;;;2.83;;
79036;SDS011;68434;59.896;30.474;2023-03-14T01:31:34;4.93;;;3.17;;
79036;SDS011;68434;59.896;30.474;2023-03-14T01:34:03;4.05;;;2.88;;
79036;SDS011;68434;59.896;30.474;2023-03-14T01:36:30;5.18;;;2.95;;
79036;SDS011;68434;59.896;30.474;2023-03-14T01:39:00;3.88;;;2.28;;
79036;SDS011;68434;59.896;30.474;2023-03-14T01:41:27;2.75;;;1.77;;
79036;SDS011;68434;59.896;30.474;2023-03-14T01:43:57;5.03;;;2.60;;
79036;SDS011;68434;59.896;30.474;2023-03-14T01:46:26;4.03;;;2.50;;
79036;SDS011;68434;59.896;30.474;2023-03-14T01:49:03;2.63;;;1.80;;
79036;SDS011;68434;59.896;30.474;2023-03-14T01:51:36;3.20;;;1.98;;
79036;SDS011;68434;59.896;30.474;2023-03-14T01:54:10;3.40;;;2.10;;
79036;SDS011;68434;59.896;30.474;2023-03-14T01:56:43;3.75;;;2.30;;
79036;SDS011;68434;59.896;30.474;2023-03-14T01:59:14;3.33;;;2.30;;
79036;SDS011;68434;59.896;30.474;2023-03-14T02:01:43;3.63;;;1.80;;
79036;SDS011;68434;59.896;30.474;2023-03-14T02:04:15;3.00;;;1.88;;
79036;SDS011;68434;59.896;30.474;2023-03-14T02:06:47;3.47;;;2.22;;
79036;SDS011;68434;59.896;30.474;2023-03-14T02:09:21;3.97;;;2.05;;
79036;SDS011;68434;59.896;30.474;2023-03-14T02:11:49;5.25;;;2.78;;
79036;SDS011;68434;59.896;30.474;2023-03-14T02:14:37;2.92;;;1.90;;
79036;SDS011;68434;59.896;30.474;2023-03-14T02:17:29;3.90;;;2.03;;
79036;SDS011;68434;59.896;30.474;2023-03-14T02:20:26;3.67;;;2.28;;
79036;SDS011;68434;59.896;30.474;2023-03-14T02:22:58;3.25;;;2.30;;
79036;SDS011;68434;59.896;30.474;2023-03-14T02:25:31;3.50;;;2.20;;
79036;SDS011;68434;59.896;30.474;2023-03-14T02:28:08;2.88;;;1.80;;
79036;SDS011;68434;59.896;30.474;2023-03-14T02:30:38;3.50;;;2.22;;
79036;SDS011;68434;59.896;30.474;2023-03-14T02:33:06;3.03;;;1.95;;
79036;SDS011;68434;59.896;30.474;2023-03-14T02:35:37;3.97;;;2.10;;
79036;SDS011;68434;59.896;30.474;2023-03-14T02:38:10;3.13;;;1.80;;
79036;SDS011;68434;59.896;30.474;2023-03-14T02:40:45;3.03;;;2.10;;
79036;SDS011;68434;59.896;30.474;2023-03-14T02:43:14;4.05;;;2.15;;
79036;SDS011;68434;59.896;30.474;2023-03-14T02:45:48;3.92;;;2.20;;
79036;SDS011;68434;59.896;30.474;2023-03-14T02:48:20;4.35;;;1.90;;
79036;SDS011;68434;59.896;30.474;2023-03-14T02:50:52;3.25;;;1.83;;
79036;SDS011;68434;59.896;30.474;2023-03-14T02:53:23;3.78;;;2.03;;
79036;SDS011;68434;59.896;30.474;2023-03-14T02:55:55;5.07;;;2.03;;
79036;SDS011;68434;59.896;30.474;2023-03-14T02:58:25;2.33;;;1.67;;
79036;SDS011;68434;59.896;30.474;2023-03-14T03:01:00;3.65;;;2.20;;
79036;SDS011;68434;59.896;30.474;2023-03-14T03:03:27;3.22;;;2.10;;
79036;SDS011;68434;59.896;30.474;2023-03-14T03:05:55;2.80;;;2.00;;
79036;SDS011;68434;59.896;30.474;2023-03-14T03:08:24;3.60;;;2.22;;
79036;SDS011;68434;59.896;30.474;2023-03-14T03:10:54;3.78;;;2.08;;
79036;SDS011;68434;59.896;30.474;2023-03-14T03:13:25;4.13;;;2.30;;
79036;SDS011;68434;59.896;30.474;2023-03-14T03:15:54;3.70;;;2.55;;
79036;SDS011;68434;59.896;30.474;2023-03-14T03:18:22;4.22;;;2.20;;
79036;SDS011;68434;59.896;30.474;2023-03-14T03:20:50;3.50;;;2.10;;
79036;SDS011;68434;59.896;30.474;2023-03-14T03:23:20;4.22;;;2.78;;
79036;SDS011;68434;59.896;30.474;2023-03-14T03:25:48;2.38;;;1.60;;
79036;SDS011;68434;59.896;30.474;2023-03-14T03:30:45;3.88;;;2.60;;
79036;SDS011;68434;59.896;30.474;2023-03-14T03:35:43;2.95;;;2.10;;
79036;SDS011;68434;59.896;30.474;2023-03-14T03:38:14;4.80;;;2.30;;
79036;SDS011;68434;59.896;30.474;2023-03-14T03:40:42;5.88;;;3.70;;
79036;SDS011;68434;59.896;30.474;2023-03-14T03:43:10;3.95;;;2.45;;
79036;SDS011;68434;59.896;30.474;2023-03-14T03:45:41;3.22;;;2.10;;
79036;SDS011;68434;59.896;30.474;2023-03-14T03:48:10;4.68;;;2.45;;
79036;SDS011;68434;59.896;30.474;2023-03-14T03:50:43;3.10;;;2.13;;
79036;SDS011;68434;59.896;30.474;2023-03-14T03:53:12;4.18;;;2.50;;
79036;SDS011;68434;59.896;30.474;2023-03-14T03:55:40;3.13;;;2.03;;
79036;SDS011;68434;59.896;30.474;2023-03-14T03:58:09;4.78;;;2.15;;
79036;SDS011;68434;59.896;30.474;2023-03-14T04:00:36;13.13;;;2.85;;
79036;SDS011;68434;59.896;30.474;2023-03-14T04:03:04;3.33;;;2.15;;
79036;SDS011;68434;59.896;30.474;2023-03-14T04:05:33;2.78;;;2.10;;
79036;SDS011;68434;59.896;30.474;2023-03-14T04:08:06;6.40;;;2.85;;
79036;SDS011;68434;59.896;30.474;2023-03-14T04:10:34;3.30;;;2.22;;
79036;SDS011;68434;59.896;30.474;2023-03-14T04:13:11;9.50;;;2.40;;
79036;SDS011;68434;59.896;30.474;2023-03-14T04:15:40;4.10;;;2.72;;
79036;SDS011;68434;59.896;30.474;2023-03-14T04:18:14;5.35;;;1.92;;
79036;SDS011;68434;59.896;30.474;2023-03-14T04:20:44;3.95;;;2.35;;
79036;SDS011;68434;59.896;30.474;2023-03-14T04:25:39;4.95;;;2.10;;
79036;SDS011;68434;59.896;30.474;2023-03-14T04:28:07;2.95;;;1.92;;
79036;SDS011;68434;59.896;30.474;2023-03-14T04:30:35;4.65;;;3.10;;
79036;SDS011;68434;59.896;30.474;2023-03-14T04:33:12;4.45;;;1.98;;
79036;SDS011;68434;59.896;30.474;2023-03-14T04:35:52;2.58;;;1.85;;
79036;SDS011;68434;59.896;30.474;2023-03-14T04:38:21;2.90;;;1.92;;
79036;SDS011;68434;59.896;30.474;2023-03-14T04:40:49;4.15;;;2.42;;
79036;SDS011;68434;59.896;30.474;2023-03-14T04:43:19;3.63;;;2.20;;
79036;SDS011;68434;59.896;30.474;2023-03-14T04:45:51;3.08;;;2.00;;
79036;SDS011;68434;59.896;30.474;2023-03-14T04:48:18;2.88;;;1.90;;
79036;SDS011;68434;59.896;30.474;2023-03-14T04:50:46;3.03;;;1.77;;
79036;SDS011;68434;59.896;30.474;2023-03-14T04:53:16;2.70;;;1.95;;
79036;SDS011;68434;59.896;30.474;2023-03-14T04:55:47;3.13;;;1.98;;
79036;SDS011;68434;59.896;30.474;2023-03-14T04:58:16;3.83;;;2.42;;
79036;SDS011;68434;59.896;30.474;2023-03-14T05:00:44;2.83;;;1.92;;
79036;SDS011;68434;59.896;30.474;2023-03-14T05:03:44;2.15;;;1.65;;
79036;SDS011;68434;59.896;30.474;2023-03-14T05:06:29;3.30;;;1.90;;
79036;SDS011;68434;59.896;30.474;2023-03-14T05:09:00;5.45;;;2.58;;
79036;SDS011;68434;59.896;30.474;2023-03-14T05:12:05;4.95;;;2.28;;
79036;SDS011;68434;59.896;30.474;2023-03-14T05:14:50;4.47;;;2.17;;
79036;SDS011;68434;59.896;30.474;2023-03-14T05:17:37;5.15;;;2.22;;
79036;SDS011;68434;59.896;30.474;2023-03-14T05:20:31;2.67;;;1.58;;
79036;SDS011;68434;59.896;30.474;2023-03-14T05:23:36;3.30;;;2.00;;
79036;SDS011;68434;59.896;30.474;2023-03-14T05:26:15;4.38;;;2.30;;
79036;SDS011;68434;59.896;30.474;2023-03-14T05:28:57;3.58;;;2.10;;
79036;SDS011;68434;59.896;30.474;2023-03-14T05:31:43;7.82;;;2.15;;
79036;SDS011;68434;59.896;30.474;2023-03-14T05:34:28;6.25;;;2.08;;
79036;SDS011;68434;59.896;30.474;2023-03-14T05:37:14;2.72;;;1.75;;
79036;SDS011;68434;59.896;30.474;2023-03-14T05:40:06;4.22;;;2.00;;
79036;SDS011;68434;59.896;30.474;2023-03-14T05:42:42;5.93;;;2.10;;
79036;SDS011;68434;59.896;30.474;2023-03-14T05:45:34;6.05;;;2.75;;
79036;SDS011;68434;59.896;30.474;2023-03-14T05:48:23;5.50;;;2.63;;
79036;SDS011;68434;59.896;30.474;2023-03-14T05:51:09;19.05;;;11.60;;
79036;SDS011;68434;59.896;30.474;2023-03-14T05:53:55;3.50;;;2.17;;
79036;SDS011;68434;59.896;30.474;2023-03-14T05:57:00;3.13;;;1.92;;
79036;SDS011;68434;59.896;30.474;2023-03-14T05:59:32;4.50;;;2.28;;
79036;SDS011;68434;59.896;30.474;2023-03-14T06:02:18;3.65;;;2.20;;
79036;SDS011;68434;59.896;30.474;2023-03-14T06:04:55;4.70;;;2.80;;
79036;SDS011;68434;59.896;30.474;2023-03-14T06:07:23;4.38;;;2.70;;
79036;SDS011;68434;59.896;30.474;2023-03-14T06:09:50;5.20;;;2.50;;
79036;SDS011;68434;59.896;30.474;2023-03-14T06:12:18;3.88;;;2.35;;
79036;SDS011;68434;59.896;30.474;2023-03-14T06:14:47;4.00;;;1.88;;
79036;SDS011;68434;59.896;30.474;2023-03-14T06:17:15;3.40;;;2.13;;
79036;SDS011;68434;59.896;30.474;2023-03-14T06:19:50;5.88;;;2.28;;
79036;SDS011;68434;59.896;30.474;2023-03-14T06:22:17;5.50;;;2.50;;
79036;SDS011;68434;59.896;30.474;2023-03-14T06:24:45;2.25;;;1.30;;
79036;SDS011;68434;59.896;30.474;2023-03-14T06:27:15;4.35;;;2.03;;
79036;SDS011;68434;59.896;30.474;2023-03-14T06:29:43;3.10;;;2.13;;
79036;SDS011;68434;59.896;30.474;2023-03-14T06:32:11;4.28;;;2.30;;
79036;SDS011;68434;59.896;30.474;2023-03-14T06:34:39;4.72;;;2.95;;
79036;SDS011;68434;59.896;30.474;2023-03-14T06:37:07;4.57;;;2.10;;
79036;SDS011;68434;59.896;30.474;2023-03-14T06:39:37;3.72;;;2.03;;
79036;SDS011;68434;59.896;30.474;2023-03-14T06:42:11;4.55;;;2.83;;
79036;SDS011;68434;59.896;30.474;2023-03-14T06:47:07;3.63;;;2.75;;
79036;SDS011;68434;59.896;30.474;2023-03-14T06:49:40;6.05;;;2.47;;
79036;SDS011;68434;59.896;30.474;2023-03-14T06:52:08;3.90;;;2.92;;
79036;SDS011;68434;59.896;30.474;2023-03-14T06:54:35;3.60;;;2.40;;
79036;SDS011;68434;59.896;30.474;2023-03-14T06:57:03;4.30;;;2.50;;
79036;SDS011;68434;59.896;30.474;2023-03-14T06:59:32;8.15;;;2.63;;
79036;SDS011;68434;59.896;30.474;2023-03-14T07:02:00;4.47;;;2.67;;
79036;SDS011;68434;59.896;30.474;2023-03-14T07:04:27;4.50;;;2.83;;
79036;SDS011;68434;59.896;30.474;2023-03-14T07:06:56;3.92;;;2.70;;
79036;SDS011;68434;59.896;30.474;2023-03-14T07:09:24;6.63;;;2.72;;
79036;SDS011;68434;59.896;30.474;2023-03-14T07:11:56;4.10;;;2.58;;
79036;SDS011;68434;59.896;30.474;2023-03-14T07:14:24;4.25;;;2.30;;
79036;SDS011;68434;59.896;30.474;2023-03-14T07:16:54;5.50;;;2.60;;
79036;SDS011;68434;59.896;30.474;2023-03-14T07:19:21;5.93;;;2.72;;
79036;SDS011;68434;59.896;30.474;2023-03-14T07:21:49;5.05;;;3.28;;
79036;SDS011;68434;59.896;30.474;2023-03-14T07:24:22;5.05;;;2.63;;
79036;SDS011;68434;59.896;30.474;2023-03-14T07:26:50;8.10;;;3.38;;
79036;SDS011;68434;59.896;30.474;2023-03-14T07:29:17;4.32;;;2.70;;
79036;SDS011;68434;59.896;30.474;2023-03-14T07:31:45;6.35;;;3.10;;
79036;SDS011;68434;59.896;30.474;2023-03-14T07:34:16;5.85;;;3.00;;
79036;SDS011;68434;59.896;30.474;2023-03-14T07:36:45;6.50;;;3.10;;
79036;SDS011;68434;59.896;30.474;2023-03-14T07:39:12;4.00;;;2.63;;
79036;SDS011;68434;59.896;30.474;2023-03-14T07:42:20;4.18;;;2.33;;
79036;SDS011;68434;59.896;30.474;2023-03-14T07:44:58;3.20;;;2.38;;
79036;SDS011;68434;59.896;30.474;2023-03-14T07:47:25;6.10;;;3.47;;
79036;SDS011;68434;59.896;30.474;2023-03-14T07:49:53;7.05;;;4.53;;
79036;SDS011;68434;59.896;30.474;2023-03-14T07:52:20;5.35;;;3.33;;
79036;SDS011;68434;59.896;30.474;2023-03-14T07:54:48;7.97;;;3.33;;
79036;SDS011;68434;59.896;30.474;2023-03-14T07:57:15;10.77;;;5.28;;
79036;SDS011;68434;59.896;30.474;2023-03-14T07:59:44;6.43;;;3.40;;
79036;SDS011;68434;59.896;30.474;2023-03-14T08:02:12;7.68;;;4.07;;
79036;SDS011;68434;59.896;30.474;2023-03-14T08:04:39;9.40;;;4.63;;
79036;SDS011;68434;59.896;30.474;2023-03-14T08:07:07;7.32;;;4.03;;
79036;SDS011;68434;59.896;30.474;2023-03-14T08:09:34;8.65;;;3.38;;
79036;SDS011;68434;59.896;30.474;2023-03-14T08:12:02;7.63;;;4.28;;
79036;SDS011;68434;59.896;30.474;2023-03-14T08:14:29;5.82;;;3.22;;
79036;SDS011;68434;59.896;30.474;2023-03-14T08:16:58;8.98;;;5.00;;
79036;SDS011;68434;59.896;30.474;2023-03-14T08:19:26;5.60;;;3.67;;
79036;SDS011;68434;59.896;30.474;2023-03-14T08:21:54;6.07;;;3.42;;
79036;SDS011;68434;59.896;30.474;2023-03-14T08:24:21;13.82;;;4.22;;
79036;SDS011;68434;59.896;30.474;2023-03-14T08:26:49;7.28;;;4.53;;
79036;SDS011;68434;59.896;30.474;2023-03-14T08:29:16;5.95;;;4.07;;
79036;SDS011;68434;59.896;30.474;2023-03-14T08:31:44;7.28;;;4.55;;
79036;SDS011;68434;59.896;30.474;2023-03-14T08:34:12;9.73;;;4.70;;
79036;SDS011;68434;59.896;30.474;2023-03-14T08:36:40;10.80;;;4.57;;
79036;SDS011;68434;59.896;30.474;2023-03-14T08:39:08;7.95;;;4.45;;
79036;SDS011;68434;59.896;30.474;2023-03-14T08:41:35;5.68;;;3.92;;
79036;SDS011;68434;59.896;30.474;2023-03-14T08:44:05;9.30;;;4.40;;
79036;SDS011;68434;59.896;30.474;2023-03-14T08:46:33;8.40;;;4.53;;
79036;SDS011;68434;59.896;30.474;2023-03-14T08:49:01;7.85;;;4.30;;
79036;SDS011;68434;59.896;30.474;2023-03-14T08:51:30;8.73;;;4.78;;
79036;SDS011;68434;59.896;30.474;2023-03-14T08:53:57;9.88;;;4.97;;
79036;SDS011;68434;59.896;30.474;2023-03-14T08:56:25;8.80;;;4.82;;
79036;SDS011;68434;59.896;30.474;2023-03-14T08:58:52;8.68;;;4.63;;
79036;SDS011;68434;59.896;30.474;2023-03-14T09:01:20;7.88;;;5.25;;
79036;SDS011;68434;59.896;30.474;2023-03-14T09:03:49;7.55;;;4.28;;
79036;SDS011;68434;59.896;30.474;2023-03-14T09:06:17;8.05;;;4.80;;
79036;SDS011;68434;59.896;30.474;2023-03-14T09:08:46;10.48;;;5.57;;
79036;SDS011;68434;59.896;30.474;2023-03-14T09:11:14;11.20;;;5.30;;
79036;SDS011;68434;59.896;30.474;2023-03-14T09:13:41;9.05;;;5.03;;
79036;SDS011;68434;59.896;30.474;2023-03-14T09:16:09;7.63;;;4.80;;
79036;SDS011;68434;59.896;30.474;2023-03-14T09:18:36;9.68;;;4.72;;
79036;SDS011;68434;59.896;30.474;2023-03-14T09:21:05;6.95;;;4.43;;
79036;SDS011;68434;59.896;30.474;2023-03-14T09:23:36;10.80;;;5.75;;
79036;SDS011;68434;59.896;30.474;2023-03-14T09:26:04;6.60;;;3.60;;
79036;SDS011;68434;59.896;30.474;2023-03-14T09:28:32;9.48;;;4.95;;
79036;SDS011;68434;59.896;30.474;2023-03-14T09:31:04;9.98;;;6.40;;
79036;SDS011;68434;59.896;30.474;2023-03-14T09:33:33;9.50;;;5.75;;
79036;SDS011;68434;59.896;30.474;2023-03-14T09:36:01;6.75;;;4.50;;
79036;SDS011;68434;59.896;30.474;2023-03-14T09:38:28;8.98;;;5.63;;
79036;SDS011;68434;59.896;30.474;2023-03-14T09:40:57;10.75;;;4.95;;
79036;SDS011;68434;59.896;30.474;2023-03-14T09:43:29;10.50;;;5.50;;
79036;SDS011;68434;59.896;30.474;2023-03-14T09:46:00;9.02;;;5.40;;
79036;SDS011;68434;59.896;30.474;2023-03-14T09:48:30;10.55;;;6.20;;
79036;SDS011;68434;59.896;30.474;2023-03-14T09:51:01;12.18;;;6.22;;
79036;SDS011;68434;59.896;30.474;2023-03-14T09:53:34;12.13;;;6.00;;
79036;SDS011;68434;59.896;30.474;2023-03-14T09:56:08;8.40;;;5.40;;
79036;SDS011;68434;59.896;30.474;2023-03-14T09:58:41;9.20;;;6.13;;
79036;SDS011;68434;59.896;30.474;2023-03-14T10:01:13;30.00;;;15.57;;
79036;SDS011;68434;59.896;30.474;2023-03-14T10:03:43;13.68;;;7.15;;
79036;SDS011;68434;59.896;30.474;2023-03-14T10:06:13;34.90;;;16.65;;
79036;SDS011;68434;59.896;30.474;2023-03-14T10:08:41;9.43;;;5.38;;
79036;SDS011;68434;59.896;30.474;2023-03-14T10:13:48;12.23;;;6.63;;
79036;SDS011;68434;59.896;30.474;2023-03-14T10:16:31;13.98;;;6.90;;
79036;SDS011;68434;59.896;30.474;2023-03-14T10:19:04;9.65;;;6.22;;
79036;SDS011;68434;59.896;30.474;2023-03-14T10:21:37;12.20;;;7.00;;
79036;SDS011;68434;59.896;30.474;2023-03-14T10:24:07;13.18;;;6.15;;
79036;SDS011;68434;59.896;30.474;2023-03-14T10:26:36;12.75;;;6.35;;
79036;SDS011;68434;59.896;30.474;2023-03-14T10:29:10;9.25;;;5.97;;
79036;SDS011;68434;59.896;30.474;2023-03-14T10:31:49;11.07;;;6.93;;
79036;SDS011;68434;59.896;30.474;2023-03-14T10:34:21;13.82;;;6.57;;
79036;SDS011;68434;59.896;30.474;2023-03-14T10:36:53;9.70;;;5.30;;
79036;SDS011;68434;59.896;30.474;2023-03-14T10:42:13;9.90;;;5.05;;
79036;SDS011;68434;59.896;30.474;2023-03-14T10:44:49;13.73;;;6.80;;
79036;SDS011;68434;59.896;30.474;2023-03-14T10:47:23;52.08;;;26.17;;
79036;SDS011;68434;59.896;30.474;2023-03-14T10:49:53;20.23;;;9.90;;
79036;SDS011;68434;59.896;30.474;2023-03-14T10:52:22;37.63;;;21.92;;
79036;SDS011;68434;59.896;30.474;2023-03-14T10:54:54;12.63;;;7.85;;
79036;SDS011;68434;59.896;30.474;2023-03-14T10:57:23;17.20;;;9.82;;
79036;SDS011;68434;59.896;30.474;2023-03-14T10:59:53;19.80;;;12.50;;
79036;SDS011;68434;59.896;30.474;2023-03-14T11:02:27;21.38;;;10.85;;
79036;SDS011;68434;59.896;30.474;2023-03-14T11:05:11;8.38;;;5.47;;
79036;SDS011;68434;59.896;30.474;2023-03-14T11:07:48;11.38;;;6.65;;
79036;SDS011;68434;59.896;30.474;2023-03-14T11:10:19;21.27;;;11.30;;
79036;SDS011;68434;59.896;30.474;2023-03-14T11:12:56;12.30;;;6.28;;
79036;SDS011;68434;59.896;30.474;2023-03-14T11:15:36;30.73;;;15.85;;
79036;SDS011;68434;59.896;30.474;2023-03-14T11:18:26;35.42;;;20.65;;
79036;SDS011;68434;59.896;30.474;2023-03-14T11:21:13;19.88;;;10.48;;
79036;SDS011;68434;59.896;30.474;2023-03-14T11:23:46;15.73;;;7.97;;
79036;SDS011;68434;59.896;30.474;2023-03-14T11:26:26;12.00;;;5.82;;
79036;SDS011;68434;59.896;30.474;2023-03-14T11:29:02;24.88;;;13.15;;
79036;SDS011;68434;59.896;30.474;2023-03-14T11:31:45;21.45;;;11.85;;
79036;SDS011;68434;59.896;30.474;2023-03-14T11:34:15;12.23;;;6.60;;
79036;SDS011;68434;59.896;30.474;2023-03-14T11:36:46;8.38;;;5.70;;
79036;SDS011;68434;59.896;30.474;2023-03-14T11:39:19;12.98;;;5.68;;
79036;SDS011;68434;59.896;30.474;2023-03-14T11:44:17;28.02;;;16.52;;
79036;SDS011;68434;59.896;30.474;2023-03-14T11:46:50;10.32;;;5.90;;
79036;SDS011;68434;59.896;30.474;2023-03-14T11:51:56;9.15;;;5.88;;
79036;SDS011;68434;59.896;30.474;2023-03-14T11:54:28;11.57;;;7.32;;
79036;SDS011;68434;59.896;30.474;2023-03-14T11:57:03;10.88;;;6.28;;
79036;SDS011;68434;59.896;30.474;2023-03-14T11:59:33;10.77;;;6.47;;
79036;SDS011;68434;59.896;30.474;2023-03-14T12:02:12;11.52;;;6.80;;
79036;SDS011;68434;59.896;30.474;2023-03-14T12:04:54;12.18;;;7.55;;
79036;SDS011;68434;59.896;30.474;2023-03-14T12:07:39;11.38;;;6.30;;
79036;SDS011;68434;59.896;30.474;2023-03-14T12:10:21;12.73;;;6.43;;
79036;SDS011;68434;59.896;30.474;2023-03-14T12:12:49;11.25;;;6.32;;
79036;SDS011;68434;59.896;30.474;2023-03-14T12:15:18;13.00;;;7.40;;
79036;SDS011;68434;59.896;30.474;2023-03-14T12:17:52;13.15;;;6.85;;
79036;SDS011;68434;59.896;30.474;2023-03-14T12:20:21;11.10;;;6.00;;
79036;SDS011;68434;59.896;30.474;2023-03-14T12:22:51;12.05;;;6.20;;
79036;SDS011;68434;59.896;30.474;2023-03-14T12:25:21;12.38;;;6.53;;
79036;SDS011;68434;59.896;30.474;2023-03-14T12:30:45;10.10;;;6.68;;
79036;SDS011;68434;59.896;30.474;2023-03-14T12:36:02;14.20;;;7.78;;
79036;SDS011;68434;59.896;30.474;2023-03-14T12:38:37;11.55;;;7.10;;
79036;SDS011;68434;59.896;30.474;2023-03-14T12:41:16;14.05;;;7.07;;
79036;SDS011;68434;59.896;30.474;2023-03-14T12:43:46;13.50;;;7.70;;
79036;SDS011;68434;59.896;30.474;2023-03-14T12:46:15;13.20;;;7.40;;
79036;SDS011;68434;59.896;30.474;2023-03-14T12:48:48;12.85;;;6.57;;
79036;SDS011;68434;59.896;30.474;2023-03-14T12:51:21;12.40;;;7.70;;
79036;SDS011;68434;59.896;30.474;2023-03-14T12:57:06;15.13;;;7.45;;
79036;SDS011;68434;59.896;30.474;2023-03-14T12:59:45;14.20;;;7.35;;
79036;SDS011;68434;59.896;30.474;2023-03-14T13:02:20;11.60;;;7.50;;
79036;SDS011;68434;59.896;30.474;2023-03-14T13:04:51;9.95;;;7.00;;
79036;SDS011;68434;59.896;30.474;2023-03-14T13:07:30;14.20;;;6.63;;
79036;SDS011;68434;59.896;30.474;2023-03-14T13:10:00;13.82;;;6.60;;
79036;SDS011;68434;59.896;30.474;2023-03-14T13:12:46;14.43;;;7.57;;
79036;SDS011;68434;59.896;30.474;2023-03-14T13:15:21;12.88;;;7.00;;
79036;SDS011;68434;59.896;30.474;2023-03-14T13:17:53;13.23;;;7.10;;
79036;SDS011;68434;59.896;30.474;2023-03-14T13:20:31;13.43;;;7.05;;
79036;SDS011;68434;59.896;30.474;2023-03-14T13:23:02;12.23;;;6.85;;
79036;SDS011;68434;59.896;30.474;2023-03-14T13:25:32;10.50;;;7.00;;
79036;SDS011;68434;59.896;30.474;2023-03-14T13:28:01;14.05;;;7.57;;
79036;SDS011;68434;59.896;30.474;2023-03-14T13:30:35;18.08;;;8.25;;
79036;SDS011;68434;59.896;30.474;2023-03-14T13:33:06;12.45;;;7.60;;
79036;SDS011;68434;59.896;30.474;2023-03-14T13:35:41;13.30;;;7.60;;
79036;SDS011;68434;59.896;30.474;2023-03-14T13:38:15;14.68;;;8.63;;
79036;SDS011;68434;59.896;30.474;2023-03-14T13:40:48;12.88;;;7.07;;
79036;SDS011;68434;59.896;30.474;2023-03-14T13:43:18;14.00;;;7.97;;
79036;SDS011;68434;59.896;30.474;2023-03-14T13:45:49;13.18;;;7.30;;
79036;SDS011;68434;59.896;30.474;2023-03-14T13:48:18;13.38;;;6.90;;
79036;SDS011;68434;59.896;30.474;2023-03-14T13:50:55;14.70;;;7.95;;
79036;SDS011;68434;59.896;30.474;2023-03-14T13:53:26;12.43;;;8.10;;
79036;SDS011;68434;59.896;30.474;2023-03-14T13:55:53;12.57;;;7.80;;
79036;SDS011;68434;59.896;30.474;2023-03-14T13:58:28;11.23;;;7.35;;
79036;SDS011;68434;59.896;30.474;2023-03-14T14:01:03;14.63;;;7.28;;
79036;SDS011;68434;59.896;30.474;2023-03-14T14:03:39;11.88;;;7.75;;
79036;SDS011;68434;59.896;30.474;2023-03-14T14:06:16;11.20;;;7.05;;
79036;SDS011;68434;59.896;30.474;2023-03-14T14:08:53;16.73;;;7.88;;
79036;SDS011;68434;59.896;30.474;2023-03-14T14:11:31;13.73;;;7.13;;
79036;SDS011;68434;59.896;30.474;2023-03-14T14:14:05;13.73;;;8.88;;
79036;SDS011;68434;59.896;30.474;2023-03-14T14:16:39;17.42;;;7.95;;
79036;SDS011;68434;59.896;30.474;2023-03-14T14:19:08;13.52;;;7.75;;
79036;SDS011;68434;59.896;30.474;2023-03-14T14:21:37;13.10;;;8.32;;
79036;SDS011;68434;59.896;30.474;2023-03-14T14:24:07;18.02;;;8.25;;
79036;SDS011;68434;59.896;30.474;2023-03-14T14:26:36;12.95;;;7.00;;
79036;SDS011;68434;59.896;30.474;2023-03-14T14:29:16;12.40;;;7.60;;
79036;SDS011;68434;59.896;30.474;2023-03-14T14:31:59;13.38;;;6.80;;
79036;SDS011;68434;59.896;30.474;2023-03-14T14:34:38;17.27;;;7.72;;
79036;SDS011;68434;59.896;30.474;2023-03-14T14:37:25;17.63;;;7.90;;
79036;SDS011;68434;59.896;30.474;2023-03-14T14:39:55;12.75;;;7.72;;
79036;SDS011;68434;59.896;30.474;2023-03-14T14:42:25;12.02;;;8.23;;
79036;SDS011;68434;59.896;30.474;2023-03-14T14:44:55;11.07;;;6.75;;
79036;SDS011;68434;59.896;30.474;2023-03-14T14:47:26;13.30;;;7.50;;
79036;SDS011;68434;59.896;30.474;2023-03-14T14:49:56;14.23;;;7.03;;
79036;SDS011;68434;59.896;30.474;2023-03-14T14:52:36;14.68;;;8.02;;
79036;SDS011;68434;59.896;30.474;2023-03-14T14:55:11;12.20;;;7.65;;
79036;SDS011;68434;59.896;30.474;2023-03-14T14:57:48;12.77;;;7.13;;
79036;SDS011;68434;59.896;30.474;2023-03-14T15:00:20;12.82;;;8.98;;
79036;SDS011;68434;59.896;30.474;2023-03-14T15:02:50;12.25;;;7.32;;
79036;SDS011;68434;59.896;30.474;2023-03-14T15:05:19;12.07;;;7.65;;
79036;SDS011;68434;59.896;30.474;2023-03-14T15:07:50;10.88;;;7.60;;
79036;SDS011;68434;59.896;30.474;2023-03-14T15:10:18;13.65;;;7.60;;
79036;SDS011;68434;59.896;30.474;2023-03-14T15:12:47;12.43;;;7.25;;
79036;SDS011;68434;59.896;30.474;2023-03-14T15:15:15;11.50;;;7.38;;
79036;SDS011;68434;59.896;30.474;2023-03-14T15:17:43;13.15;;;7.93;;
79036;SDS011;68434;59.896;30.474;2023-03-14T15:20:12;13.13;;;7.22;;
79036;SDS011;68434;59.896;30.474;2023-03-14T15:22:41;15.57;;;8.30;;
79036;SDS011;68434;59.896;30.474;2023-03-14T15:25:10;14.02;;;8.23;;
79036;SDS011;68434;59.896;30.474;2023-03-14T15:27:38;10.02;;;7.28;;